createdAt,value
2023-07-01T00:00:56.341Z,29.63
2023-07-01T00:01:56.510Z,29.64
2023-07-01T00:02:56.477Z,29.64
2023-07-01T00:03:56.594Z,29.66
2023-07-01T00:04:56.620Z,29.67
2023-07-01T00:05:56.654Z,29.67
2023-07-01T00:06:56.872Z,29.66
2023-07-01T00:07:56.756Z,29.64
2023-07-01T00:08:56.808Z,29.64
2023-07-01T00:09:56.848Z,29.67
2023-07-01T00:10:56.922Z,29.63
2023-07-01T00:11:56.925Z,29.62
2023-07-01T00:12:57.010Z,29.62
2023-07-01T00:13:57.072Z,29.66
2023-07-01T00:14:57.083Z,29.66
2023-07-01T00:15:57.320Z,29.66
2023-07-01T00:16:57.196Z,29.64
2023-07-01T00:17:57.314Z,29.63
2023-07-01T00:18:57.295Z,29.66
2023-07-01T00:19:57.304Z,29.64
2023-07-01T00:20:57.372Z,29.63
2023-07-01T00:21:57.383Z,29.66
2023-07-01T00:22:57.422Z,29.63
2023-07-01T00:23:57.456Z,29.62
2023-07-01T00:24:57.498Z,29.60
2023-07-01T00:25:57.540Z,29.57
2023-07-01T00:26:57.587Z,29.55
2023-07-01T00:27:57.629Z,29.55
2023-07-01T00:28:57.662Z,29.59
2023-07-01T00:29:57.741Z,29.53
2023-07-01T00:30:57.841Z,29.57
2023-07-01T00:31:57.868Z,29.60
2023-07-01T00:32:57.943Z,29.59
2023-07-01T00:33:57.973Z,29.60
2023-07-01T00:34:58.011Z,29.62
2023-07-01T00:35:58.081Z,29.62
2023-07-01T00:36:58.132Z,29.57
2023-07-01T00:37:58.122Z,29.57
2023-07-01T00:38:58.200Z,29.63
2023-07-01T00:39:58.260Z,29.62
2023-07-01T00:40:58.248Z,29.63
2023-07-01T00:41:58.361Z,29.56
2023-07-01T00:42:58.320Z,29.52
2023-07-01T00:43:58.393Z,29.62
2023-07-01T00:44:58.451Z,29.57
2023-07-01T00:45:58.520Z,29.60
2023-07-01T00:46:58.513Z,29.60
2023-07-01T00:47:58.586Z,29.57
2023-07-01T00:48:58.586Z,29.59
2023-07-01T00:49:58.586Z,29.59
2023-07-01T00:50:58.687Z,29.57
2023-07-01T00:51:58.694Z,29.57
2023-07-01T00:52:58.686Z,29.55
2023-07-01T00:53:58.682Z,29.56
2023-07-01T00:54:58.727Z,29.56
2023-07-01T00:55:58.769Z,29.56
2023-07-01T00:56:58.786Z,29.55
2023-07-01T00:57:58.792Z,29.53
2023-07-01T00:58:58.781Z,29.53
2023-07-01T00:59:58.792Z,29.52
2023-07-01T01:00:58.785Z,29.55
2023-07-01T01:01:58.774Z,29.50
2023-07-01T01:02:58.866Z,29.49
2023-07-01T01:03:58.777Z,29.52
2023-07-01T01:04:58.803Z,29.56
2023-07-01T01:05:58.807Z,29.52
2023-07-01T01:06:58.853Z,29.46
2023-07-01T01:08:00.780Z,29.55
2023-07-01T01:08:58.943Z,29.53
2023-07-01T01:09:58.942Z,29.59
2023-07-01T01:10:58.950Z,29.60
2023-07-01T01:11:58.956Z,29.53
2023-07-01T01:12:58.940Z,29.56
2023-07-01T01:13:58.965Z,29.55
2023-07-01T01:14:58.974Z,29.57
2023-07-01T01:15:59.053Z,29.55
2023-07-01T01:16:59.041Z,29.55
2023-07-01T01:17:59.070Z,29.52
2023-07-01T01:18:59.001Z,29.56
2023-07-01T01:19:59.036Z,29.55
2023-07-01T01:20:59.015Z,29.56
2023-07-01T01:22:00.183Z,29.56
2023-07-01T01:22:59.028Z,29.55
2023-07-01T01:23:59.011Z,29.56
2023-07-01T01:24:59.051Z,29.52
2023-07-01T01:25:59.099Z,29.57
2023-07-01T01:26:59.077Z,29.48
2023-07-01T01:27:59.108Z,29.55
2023-07-01T01:28:59.097Z,29.56
2023-07-01T01:29:59.105Z,29.56
2023-07-01T01:30:59.125Z,29.55
2023-07-01T01:31:59.385Z,29.57
2023-07-01T01:32:59.144Z,29.57
2023-07-01T01:33:59.138Z,29.55
2023-07-01T01:34:59.160Z,29.59
2023-07-01T01:35:59.209Z,29.57
2023-07-01T01:36:59.383Z,29.55
2023-07-01T01:37:59.229Z,29.57
2023-07-01T01:38:59.286Z,29.53
2023-07-01T01:39:59.271Z,29.55
2023-07-01T01:40:59.305Z,29.53
2023-07-01T01:41:59.395Z,29.56
2023-07-01T01:42:59.307Z,29.55
2023-07-01T01:43:59.356Z,29.52
2023-07-01T01:44:59.407Z,29.56
2023-07-01T01:45:59.379Z,29.57
2023-07-01T01:46:59.438Z,29.50
2023-07-01T01:47:59.427Z,29.49
2023-07-01T01:48:59.394Z,29.48
2023-07-01T01:49:59.412Z,29.44
2023-07-01T01:50:59.420Z,29.48
2023-07-01T01:51:59.443Z,29.48
2023-07-01T01:52:59.451Z,29.50
2023-07-01T01:53:59.537Z,29.50
2023-07-01T01:54:59.511Z,29.48
2023-07-01T01:55:59.519Z,29.48
2023-07-01T01:56:59.525Z,29.49
2023-07-01T01:57:59.522Z,29.49
2023-07-01T01:58:59.551Z,29.50
2023-07-01T01:59:59.658Z,29.49
2023-07-01T02:00:59.539Z,29.49
2023-07-01T02:01:59.691Z,29.46
2023-07-01T02:02:59.674Z,29.50
2023-07-01T02:03:59.796Z,29.50
2023-07-01T02:04:59.736Z,29.48
2023-07-01T02:05:59.641Z,29.46
2023-07-01T02:06:59.947Z,29.50
2023-07-01T02:07:59.712Z,29.48
2023-07-01T02:08:59.655Z,29.49
2023-07-01T02:09:59.802Z,29.48
2023-07-01T02:10:59.734Z,29.48
2023-07-01T02:11:59.914Z,29.44
2023-07-01T02:12:59.729Z,29.45
2023-07-01T02:13:59.775Z,29.48
2023-07-01T02:14:59.786Z,29.48
2023-07-01T02:15:59.791Z,29.48
2023-07-01T02:16:59.900Z,29.48
2023-07-01T02:17:59.834Z,29.49
2023-07-01T02:18:59.809Z,29.46
2023-07-01T02:19:59.859Z,29.42
2023-07-01T02:20:59.867Z,29.45
2023-07-01T02:21:59.922Z,29.44
2023-07-01T02:22:59.876Z,29.45
2023-07-01T02:23:59.897Z,29.45
2023-07-01T02:24:59.897Z,29.48
2023-07-01T02:25:59.886Z,29.46
2023-07-01T02:26:59.902Z,29.45
2023-07-01T02:27:59.937Z,29.42
2023-07-01T02:28:59.944Z,29.49
2023-07-01T02:29:59.959Z,29.46
2023-07-01T02:30:59.982Z,29.44
2023-07-01T02:32:00.422Z,29.46
2023-07-01T02:32:59.968Z,29.46
2023-07-01T02:33:59.975Z,29.44
2023-07-01T02:34:59.993Z,29.46
2023-07-01T02:35:59.989Z,29.42
2023-07-01T02:37:00.398Z,29.45
2023-07-01T02:38:00.013Z,29.45
2023-07-01T02:38:59.983Z,29.48
2023-07-01T02:40:00.007Z,29.49
2023-07-01T02:40:59.960Z,29.49
2023-07-01T02:42:00.412Z,29.48
2023-07-01T02:42:59.987Z,29.49
2023-07-01T02:43:59.972Z,29.49
2023-07-01T02:45:00.004Z,29.49
2023-07-01T02:45:59.993Z,29.46
2023-07-01T02:46:59.965Z,29.48
2023-07-01T02:48:00.019Z,29.46
2023-07-01T02:48:59.980Z,29.44
2023-07-01T02:49:59.993Z,29.44
2023-07-01T02:50:59.957Z,29.40
2023-07-01T02:51:59.983Z,29.40
2023-07-01T02:52:59.982Z,29.40
2023-07-01T02:54:00.054Z,29.40
2023-07-01T02:54:59.960Z,29.39
2023-07-01T02:55:59.979Z,29.40
2023-07-01T02:56:59.958Z,29.44
2023-07-01T02:57:59.944Z,29.45
2023-07-01T02:58:59.930Z,29.45
2023-07-01T02:59:59.909Z,29.45
2023-07-01T03:00:59.947Z,29.44
2023-07-01T03:02:00.065Z,29.42
2023-07-01T03:02:59.983Z,29.39
2023-07-01T03:04:05.663Z,29.39
2023-07-01T03:05:01.002Z,29.44
2023-07-01T03:05:59.961Z,29.36
2023-07-01T03:06:59.939Z,29.39
2023-07-01T03:07:59.974Z,29.35
2023-07-01T03:08:59.931Z,29.36
2023-07-01T03:09:59.943Z,29.32
2023-07-01T03:10:59.934Z,29.30
2023-07-01T03:11:59.954Z,29.39
2023-07-01T03:12:59.971Z,29.33
2023-07-01T03:13:59.946Z,29.36
2023-07-01T03:14:59.925Z,29.32
2023-07-01T03:16:00.093Z,29.29
2023-07-01T03:17:00.024Z,29.35
2023-07-01T03:17:59.996Z,29.30
2023-07-01T03:18:59.918Z,29.32
2023-07-01T03:19:59.900Z,29.36
2023-07-01T03:20:59.861Z,29.35
2023-07-01T03:21:59.855Z,29.32
2023-07-01T03:22:59.947Z,29.35
2023-07-01T03:23:59.872Z,29.32
2023-07-01T03:24:59.848Z,29.38
2023-07-01T03:25:59.825Z,29.29
2023-07-01T03:26:59.818Z,29.25
2023-07-01T03:27:59.980Z,29.29
2023-07-01T03:28:59.878Z,29.36
2023-07-01T03:29:59.805Z,29.38
2023-07-01T03:30:59.831Z,29.36
2023-07-01T03:31:59.871Z,29.30
2023-07-01T03:33:00.056Z,29.33
2023-07-01T03:33:59.807Z,29.32
2023-07-01T03:34:59.820Z,29.33
2023-07-01T03:35:59.768Z,29.35
2023-07-01T03:36:59.777Z,29.29
2023-07-01T03:37:59.960Z,29.29
2023-07-01T03:38:59.800Z,29.29
2023-07-01T03:39:59.759Z,29.33
2023-07-01T03:41:00.425Z,29.26
2023-07-01T03:41:59.754Z,29.25
2023-07-01T03:43:00.013Z,29.32
2023-07-01T03:43:59.779Z,29.29
2023-07-01T03:44:59.788Z,29.30
2023-07-01T03:45:59.874Z,29.29
2023-07-01T03:46:59.801Z,29.32
2023-07-01T03:47:59.962Z,29.35
2023-07-01T03:48:59.811Z,29.36
2023-07-01T03:49:59.829Z,29.35
2023-07-01T03:50:59.792Z,29.32
2023-07-01T03:51:59.845Z,29.36
2023-07-01T03:52:59.795Z,29.36
2023-07-01T03:53:59.803Z,29.32
2023-07-01T03:54:59.777Z,29.33
2023-07-01T03:55:59.795Z,29.36
2023-07-01T03:56:59.823Z,29.33
2023-07-01T03:57:59.798Z,29.30
2023-07-01T03:58:59.801Z,29.35
2023-07-01T03:59:59.777Z,29.30
2023-07-01T04:00:59.867Z,29.32
2023-07-01T04:01:59.811Z,29.24
2023-07-01T04:02:59.871Z,29.28
2023-07-01T04:03:59.824Z,29.28
2023-07-01T04:04:59.934Z,29.28
2023-07-01T04:05:59.786Z,29.30
2023-07-01T04:06:59.825Z,29.32
2023-07-01T04:07:59.795Z,29.29
2023-07-01T04:08:59.849Z,29.33
2023-07-01T04:09:59.818Z,29.30
2023-07-01T04:11:01.263Z,29.29
2023-07-01T04:11:59.834Z,29.28
2023-07-01T04:12:59.790Z,29.30
2023-07-01T04:13:59.797Z,29.24
2023-07-01T04:14:59.811Z,29.28
2023-07-01T04:15:59.789Z,29.28
2023-07-01T04:16:59.803Z,29.28
2023-07-01T04:17:59.846Z,29.24
2023-07-01T04:18:59.772Z,29.28
2023-07-01T04:19:59.815Z,29.28
2023-07-01T04:20:59.757Z,29.30
2023-07-01T04:21:59.777Z,29.30
2023-07-01T04:23:00.958Z,29.30
2023-07-01T04:23:59.729Z,29.28
2023-07-01T04:24:59.762Z,29.25
2023-07-01T04:25:59.700Z,29.25
2023-07-01T04:26:59.722Z,29.25
2023-07-01T04:27:59.916Z,29.26
2023-07-01T04:28:59.702Z,29.22
2023-07-01T04:29:59.731Z,29.25
2023-07-01T04:30:59.693Z,29.28
2023-07-01T04:31:59.655Z,29.28
2023-07-01T04:33:00.044Z,29.26
2023-07-01T04:33:59.654Z,29.32
2023-07-01T04:34:59.665Z,29.29
2023-07-01T04:35:59.658Z,29.28
2023-07-01T04:36:59.668Z,29.30
2023-07-01T04:37:59.970Z,29.32
2023-07-01T04:38:59.614Z,29.32
2023-07-01T04:39:59.619Z,29.35
2023-07-01T04:40:59.632Z,29.30
2023-07-01T04:41:59.609Z,29.33
2023-07-01T04:42:59.981Z,29.29
2023-07-01T04:43:59.613Z,29.29
2023-07-01T04:44:59.585Z,29.33
2023-07-01T04:45:59.558Z,29.32
2023-07-01T04:46:59.632Z,29.32
2023-07-01T04:48:00.069Z,29.33
2023-07-01T04:48:59.608Z,29.33
2023-07-01T04:49:59.550Z,29.33
2023-07-01T04:50:59.546Z,29.36
2023-07-01T04:51:59.577Z,29.29
2023-07-01T04:52:59.536Z,29.28
2023-07-01T04:53:59.535Z,29.25
2023-07-01T04:54:59.556Z,29.29
2023-07-01T04:55:59.561Z,29.26
2023-07-01T04:56:59.568Z,29.25
2023-07-01T04:57:59.975Z,29.25
2023-07-01T04:58:59.522Z,29.25
2023-07-01T04:59:59.567Z,29.24
2023-07-01T05:00:59.557Z,29.26
2023-07-01T05:01:59.621Z,29.25
2023-07-01T05:03:00.650Z,29.28
2023-07-01T05:03:59.554Z,29.29
2023-07-01T05:04:59.609Z,29.28
2023-07-01T05:05:59.456Z,29.30
2023-07-01T05:06:59.458Z,29.29
2023-07-01T05:07:59.509Z,29.32
2023-07-01T05:08:59.441Z,29.30
2023-07-01T05:09:59.451Z,29.29
2023-07-01T05:10:59.415Z,29.29
2023-07-01T05:11:59.455Z,29.30
2023-07-01T05:12:59.464Z,29.32
2023-07-01T05:13:59.413Z,29.32
2023-07-01T05:14:59.389Z,29.30
2023-07-01T05:15:59.426Z,29.30
2023-07-01T05:16:59.431Z,29.33
2023-07-01T05:17:59.529Z,29.30
2023-07-01T05:18:59.343Z,29.29
2023-07-01T05:19:59.366Z,29.29
2023-07-01T05:20:59.364Z,29.28
2023-07-01T05:21:59.334Z,29.30
2023-07-01T05:22:59.463Z,29.25
2023-07-01T05:23:59.336Z,29.30
2023-07-01T05:24:59.353Z,29.29
2023-07-01T05:25:59.278Z,29.28
2023-07-01T05:26:59.363Z,29.26
2023-07-01T05:27:59.553Z,29.26
2023-07-01T05:28:59.287Z,29.25
2023-07-01T05:29:59.326Z,29.30
2023-07-01T05:30:59.380Z,29.29
2023-07-01T05:31:59.281Z,29.28
2023-07-01T05:32:59.328Z,29.26
2023-07-01T05:33:59.251Z,29.24
2023-07-01T05:34:59.246Z,29.24
2023-07-01T05:35:59.245Z,29.25
2023-07-01T05:36:59.244Z,29.24
2023-07-01T05:37:59.262Z,29.25
2023-07-01T05:38:59.246Z,29.25
2023-07-01T05:39:59.230Z,29.26
2023-07-01T05:40:59.209Z,29.28
2023-07-01T05:41:59.217Z,29.25
2023-07-01T05:42:59.213Z,29.26
2023-07-01T05:44:00.289Z,29.25
2023-07-01T05:44:59.200Z,29.25
2023-07-01T05:45:59.206Z,29.24
2023-07-01T05:46:59.198Z,29.25
2023-07-01T05:47:59.219Z,29.18
2023-07-01T05:48:59.148Z,29.22
2023-07-01T05:49:59.203Z,29.26
2023-07-01T05:50:59.174Z,29.26
2023-07-01T05:51:59.135Z,29.26
2023-07-01T05:52:59.147Z,29.28
2023-07-01T05:53:59.134Z,29.24
2023-07-01T05:54:59.136Z,29.30
2023-07-01T05:55:59.129Z,29.32
2023-07-01T05:56:59.085Z,29.24
2023-07-01T05:57:59.098Z,29.28
2023-07-01T05:58:59.103Z,29.30
2023-07-01T05:59:59.116Z,29.33
2023-07-01T06:00:59.088Z,29.33
2023-07-01T06:01:59.132Z,29.32
2023-07-01T06:02:59.113Z,29.32
2023-07-01T06:03:59.077Z,29.30
2023-07-01T06:04:59.163Z,29.28
2023-07-01T06:05:59.065Z,29.32
2023-07-01T06:06:59.045Z,29.33
2023-07-01T06:07:59.087Z,29.28
2023-07-01T06:08:59.016Z,29.32
2023-07-01T06:09:59.982Z,29.29
2023-07-01T06:10:58.999Z,29.33
2023-07-01T06:11:59.021Z,29.33
2023-07-01T06:12:59.080Z,29.29
2023-07-01T06:13:58.977Z,29.32
2023-07-01T06:14:58.990Z,29.29
2023-07-01T06:15:58.967Z,29.28
2023-07-01T06:16:59.008Z,29.33
2023-07-01T06:17:58.961Z,29.32
2023-07-01T06:18:58.986Z,29.35
2023-07-01T06:19:58.959Z,29.32
2023-07-01T06:20:58.926Z,29.30
2023-07-01T06:21:58.952Z,29.28
2023-07-01T06:22:58.915Z,29.36
2023-07-01T06:23:58.900Z,29.32
2023-07-01T06:24:58.923Z,29.35
2023-07-01T06:25:58.892Z,29.32
2023-07-01T06:26:58.904Z,29.30
2023-07-01T06:27:58.901Z,29.35
2023-07-01T06:28:58.898Z,29.32
2023-07-01T06:29:58.884Z,29.35
2023-07-01T06:30:58.928Z,29.40
2023-07-01T06:31:58.903Z,29.36
2023-07-01T06:32:58.951Z,29.39
2023-07-01T06:33:59.495Z,29.33
2023-07-01T06:34:58.872Z,29.36
2023-07-01T06:35:58.843Z,29.38
2023-07-01T06:36:58.898Z,29.39
2023-07-01T06:37:58.868Z,29.40
2023-07-01T06:38:58.934Z,29.40
2023-07-01T06:39:58.803Z,29.40
2023-07-01T06:40:58.815Z,29.39
2023-07-01T06:41:58.879Z,29.35
2023-07-01T06:42:58.837Z,29.38
2023-07-01T06:43:58.805Z,29.38
2023-07-01T06:44:58.790Z,29.38
2023-07-01T06:45:58.818Z,29.36
2023-07-01T06:46:58.774Z,29.35
2023-07-01T06:47:58.805Z,29.39
2023-07-01T06:48:58.766Z,29.40
2023-07-01T06:49:58.738Z,29.40
2023-07-01T06:50:58.739Z,29.42
2023-07-01T06:51:58.748Z,29.42
2023-07-01T06:52:58.740Z,29.44
2023-07-01T06:53:58.753Z,29.45
2023-07-01T06:54:58.746Z,29.44
2023-07-01T06:55:58.710Z,29.42
2023-07-01T06:56:58.691Z,29.44
2023-07-01T06:57:58.702Z,29.44
2023-07-01T06:58:58.679Z,29.44
2023-07-01T06:59:58.675Z,29.42
2023-07-01T07:00:58.796Z,29.44
2023-07-01T07:01:58.679Z,29.44
2023-07-01T07:02:58.723Z,29.45
2023-07-01T07:03:58.637Z,29.44
2023-07-01T07:04:58.656Z,29.46
2023-07-01T07:05:58.621Z,29.46
2023-07-01T07:06:58.632Z,29.46
2023-07-01T07:07:58.645Z,29.48
2023-07-01T07:08:58.625Z,29.46
2023-07-01T07:09:58.573Z,29.48
2023-07-01T07:10:58.619Z,29.48
2023-07-01T07:11:58.566Z,29.45
2023-07-01T07:12:58.625Z,29.46
2023-07-01T07:13:58.588Z,29.48
2023-07-01T07:14:58.576Z,29.48
2023-07-01T07:15:58.590Z,29.46
2023-07-01T07:16:58.597Z,29.46
2023-07-01T07:17:58.658Z,29.45
2023-07-01T07:18:58.529Z,29.45
2023-07-01T07:19:58.530Z,29.45
2023-07-01T07:20:58.538Z,29.48
2023-07-01T07:21:58.529Z,29.49
2023-07-01T07:22:58.532Z,29.46
2023-07-01T07:23:59.550Z,29.48
2023-07-01T07:24:58.821Z,29.46
2023-07-01T07:25:58.729Z,29.50
2023-07-01T07:26:58.739Z,29.48
2023-07-01T07:27:58.774Z,29.46
2023-07-01T07:28:58.739Z,29.49
2023-07-01T07:29:58.794Z,29.49
2023-07-01T07:30:58.759Z,29.48
2023-07-01T07:31:58.745Z,29.48
2023-07-01T07:32:58.757Z,29.48
2023-07-01T07:33:58.767Z,29.48
2023-07-01T07:34:58.766Z,29.48
2023-07-01T07:35:58.770Z,29.46
2023-07-01T07:36:58.782Z,29.39
2023-07-01T07:37:58.819Z,29.33
2023-07-01T07:38:58.806Z,29.26
2023-07-01T07:39:58.861Z,29.19
2023-07-01T07:40:58.894Z,29.22
2023-07-01T07:41:58.904Z,29.21
2023-07-01T07:42:58.935Z,29.26
2023-07-01T07:43:58.920Z,29.28
2023-07-01T07:44:58.908Z,29.30
2023-07-01T07:45:58.946Z,29.32
2023-07-01T07:46:59.046Z,29.35
2023-07-01T07:47:59.033Z,29.38
2023-07-01T07:48:58.979Z,29.35
2023-07-01T07:49:58.977Z,29.35
2023-07-01T07:50:58.992Z,29.36
2023-07-01T07:51:58.966Z,29.36
2023-07-01T07:52:58.992Z,29.36
2023-07-01T07:53:58.968Z,29.36
2023-07-01T07:54:59.011Z,29.39
2023-07-01T07:55:59.023Z,29.36
2023-07-01T07:56:59.040Z,29.36
2023-07-01T07:57:59.042Z,29.40
2023-07-01T07:58:59.029Z,29.38
2023-07-01T07:59:59.010Z,29.39
2023-07-01T08:00:59.054Z,29.38
2023-07-01T08:01:59.164Z,29.35
2023-07-01T08:02:59.081Z,29.33
2023-07-01T08:03:59.253Z,29.35
2023-07-01T08:04:59.204Z,29.38
2023-07-01T08:05:59.114Z,29.38
2023-07-01T08:06:59.181Z,29.36
2023-07-01T08:07:59.138Z,29.39
2023-07-01T08:08:59.206Z,29.39
2023-07-01T08:09:59.132Z,29.40
2023-07-01T08:10:59.156Z,29.38
2023-07-01T08:11:59.172Z,29.39
2023-07-01T08:12:59.215Z,29.40
2023-07-01T08:13:59.188Z,29.42
2023-07-01T08:14:59.202Z,29.42
2023-07-01T08:15:59.235Z,29.44
2023-07-01T08:16:59.257Z,29.40
2023-07-01T08:17:59.293Z,29.44
2023-07-01T08:18:59.331Z,29.42
2023-07-01T08:19:59.266Z,29.40
2023-07-01T08:20:59.248Z,29.42
2023-07-01T08:21:59.256Z,29.42
2023-07-01T08:22:59.311Z,29.42
2023-07-01T08:23:59.277Z,29.40
2023-07-01T08:24:59.246Z,29.42
2023-07-01T08:25:59.227Z,29.44
2023-07-01T08:26:59.270Z,29.44
2023-07-01T08:27:59.298Z,29.45
2023-07-01T08:28:59.286Z,29.44
2023-07-01T08:29:59.276Z,29.45
2023-07-01T08:30:59.336Z,29.44
2023-07-01T08:31:59.266Z,29.40
2023-07-01T08:32:59.398Z,29.42
2023-07-01T08:33:59.273Z,29.38
2023-07-01T08:34:59.315Z,29.38
2023-07-01T08:35:59.321Z,29.39
2023-07-01T08:37:00.864Z,29.38
2023-07-01T08:37:59.340Z,29.39
2023-07-01T08:38:59.283Z,29.39
2023-07-01T08:39:59.306Z,29.39
2023-07-01T08:40:59.318Z,29.40
2023-07-01T08:41:59.307Z,29.44
2023-07-01T08:42:59.269Z,29.40
2023-07-01T08:43:59.286Z,29.44
2023-07-01T08:44:59.284Z,29.40
2023-07-01T08:45:59.332Z,29.42
2023-07-01T08:46:59.259Z,29.42
2023-07-01T08:47:59.326Z,29.44
2023-07-01T08:48:59.230Z,29.42
2023-07-01T08:50:00.511Z,29.40
2023-07-01T08:50:59.230Z,29.44
2023-07-01T08:51:59.242Z,29.45
2023-07-01T08:52:59.199Z,29.40
2023-07-01T08:53:59.210Z,29.40
2023-07-01T08:54:59.228Z,29.39
2023-07-01T08:55:59.221Z,29.39
2023-07-01T08:56:59.188Z,29.39
2023-07-01T08:57:59.210Z,29.44
2023-07-01T08:58:59.179Z,29.42
2023-07-01T08:59:59.191Z,29.44
2023-07-01T09:00:59.153Z,29.44
2023-07-01T09:01:59.190Z,29.45
2023-07-01T09:02:59.184Z,29.45
2023-07-01T09:03:59.209Z,29.44
2023-07-01T09:04:59.324Z,29.48
2023-07-01T09:05:59.144Z,29.46
2023-07-01T09:06:59.141Z,29.45
2023-07-01T09:07:59.547Z,29.48
2023-07-01T09:08:59.107Z,29.45
2023-07-01T09:09:59.136Z,29.48
2023-07-01T09:10:59.176Z,29.48
2023-07-01T09:11:59.109Z,29.50
2023-07-01T09:12:59.144Z,29.48
2023-07-01T09:13:59.102Z,29.48
2023-07-01T09:14:59.149Z,29.49
2023-07-01T09:15:59.180Z,29.48
2023-07-01T09:16:59.122Z,29.48
2023-07-01T09:17:59.156Z,29.46
2023-07-01T09:18:59.218Z,29.45
2023-07-01T09:19:59.161Z,29.48
2023-07-01T09:20:59.118Z,29.44
2023-07-01T09:21:59.132Z,29.44
2023-07-01T09:22:59.137Z,29.44
2023-07-01T09:23:59.151Z,29.44
2023-07-01T09:24:59.187Z,29.44
2023-07-01T09:25:59.161Z,29.36
2023-07-01T09:26:59.157Z,29.44
2023-07-01T09:27:59.170Z,29.39
2023-07-01T09:28:59.186Z,29.40
2023-07-01T09:29:59.189Z,29.35
2023-07-01T09:30:59.178Z,29.33
2023-07-01T09:31:59.254Z,29.39
2023-07-01T09:32:59.221Z,29.35
2023-07-01T09:33:59.179Z,29.32
2023-07-01T09:34:59.180Z,29.36
2023-07-01T09:35:59.204Z,29.35
2023-07-01T09:36:59.204Z,29.30
2023-07-01T09:37:59.209Z,29.29
2023-07-01T09:38:59.217Z,29.33
2023-07-01T09:39:59.188Z,29.28
2023-07-01T09:40:59.237Z,29.28
2023-07-01T09:41:59.254Z,29.26
2023-07-01T09:42:59.562Z,29.26
2023-07-01T09:43:59.198Z,29.30
2023-07-01T09:44:59.191Z,29.26
2023-07-01T09:45:59.216Z,29.25
2023-07-01T09:46:59.195Z,29.26
2023-07-01T09:47:59.277Z,29.28
2023-07-01T09:48:59.224Z,29.25
2023-07-01T09:49:59.187Z,29.26
2023-07-01T09:50:59.239Z,29.25
2023-07-01T09:51:59.206Z,29.28
2023-07-01T09:52:59.215Z,29.21
2023-07-01T09:53:59.208Z,29.25
2023-07-01T09:54:59.224Z,29.28
2023-07-01T09:55:59.235Z,29.22
2023-07-01T09:56:59.232Z,29.22
2023-07-01T09:57:59.589Z,29.25
2023-07-01T09:58:59.202Z,29.28
2023-07-01T09:59:59.220Z,29.29
2023-07-01T10:00:59.273Z,29.28
2023-07-01T10:01:59.272Z,29.29
2023-07-01T10:02:59.373Z,29.29
2023-07-01T10:03:59.405Z,29.28
2023-07-01T10:04:59.290Z,29.28
2023-07-01T10:05:59.250Z,29.26
2023-07-01T10:06:59.271Z,29.29
2023-07-01T10:07:59.586Z,29.28
2023-07-01T10:08:59.289Z,29.28
2023-07-01T10:09:59.267Z,29.33
2023-07-01T10:10:59.262Z,29.30
2023-07-01T10:11:59.284Z,29.35
2023-07-01T10:12:59.545Z,29.33
2023-07-01T10:13:59.380Z,29.35
2023-07-01T10:14:59.265Z,29.36
2023-07-01T10:15:59.260Z,29.36
2023-07-01T10:16:59.426Z,29.36
2023-07-01T10:17:59.625Z,29.36
2023-07-01T10:18:59.284Z,29.39
2023-07-01T10:19:59.297Z,29.38
2023-07-01T10:20:59.302Z,29.36
2023-07-01T10:21:59.317Z,29.33
2023-07-01T10:22:59.628Z,29.39
2023-07-01T10:23:59.358Z,29.39
2023-07-01T10:24:59.376Z,29.36
2023-07-01T10:25:59.317Z,29.39
2023-07-01T10:26:59.332Z,29.40
2023-07-01T10:27:59.355Z,29.42
2023-07-01T10:28:59.375Z,29.38
2023-07-01T10:29:59.296Z,29.39
2023-07-01T10:30:59.323Z,29.40
2023-07-01T10:31:59.385Z,29.40
2023-07-01T10:32:59.345Z,29.44
2023-07-01T10:33:59.301Z,29.42
2023-07-01T10:34:59.337Z,29.40
2023-07-01T10:35:59.322Z,29.44
2023-07-01T10:36:59.317Z,29.44
2023-07-01T10:37:59.342Z,29.40
2023-07-01T10:38:59.334Z,29.44
2023-07-01T10:40:00.075Z,29.44
2023-07-01T10:40:59.313Z,29.44
2023-07-01T10:41:59.357Z,29.42
2023-07-01T10:42:59.356Z,29.40
2023-07-01T10:43:59.340Z,29.44
2023-07-01T10:44:59.368Z,29.45
2023-07-01T10:45:59.324Z,29.44
2023-07-01T10:46:59.443Z,29.42
2023-07-01T10:47:59.473Z,29.40
2023-07-01T10:48:59.378Z,29.44
2023-07-01T10:49:59.350Z,29.42
2023-07-01T10:50:59.344Z,29.46
2023-07-01T10:51:59.333Z,29.40
2023-07-01T10:52:59.343Z,29.45
2023-07-01T10:53:59.449Z,29.33
2023-07-01T10:54:59.382Z,29.35
2023-07-01T10:55:59.339Z,29.35
2023-07-01T10:56:59.366Z,29.42
2023-07-01T10:57:59.379Z,29.38
2023-07-01T10:58:59.381Z,29.42
2023-07-01T10:59:59.374Z,29.38
2023-07-01T11:00:59.374Z,29.30
2023-07-01T11:01:59.416Z,29.40
2023-07-01T11:02:59.627Z,29.42
2023-07-01T11:03:59.632Z,29.44
2023-07-01T11:04:59.389Z,29.44
2023-07-01T11:05:59.480Z,29.44
2023-07-01T11:06:59.417Z,29.40
2023-07-01T11:07:59.580Z,29.45
2023-07-01T11:08:59.418Z,29.45
2023-07-01T11:09:59.485Z,29.48
2023-07-01T11:10:59.370Z,29.46
2023-07-01T11:11:59.426Z,29.48
2023-07-01T11:12:59.405Z,29.46
2023-07-01T11:13:59.380Z,29.46
2023-07-01T11:14:59.390Z,29.46
2023-07-01T11:15:59.399Z,29.45
2023-07-01T11:16:59.399Z,29.49
2023-07-01T11:17:59.462Z,29.48
2023-07-01T11:18:59.408Z,29.52
2023-07-01T11:19:59.422Z,29.50
2023-07-01T11:20:59.431Z,29.50
2023-07-01T11:21:59.385Z,29.48
2023-07-01T11:22:59.397Z,29.48
2023-07-01T11:23:59.453Z,29.48
2023-07-01T11:24:59.451Z,29.50
2023-07-01T11:25:59.420Z,29.48
2023-07-01T11:26:59.425Z,29.50
2023-07-01T11:27:59.441Z,29.49
2023-07-01T11:28:59.490Z,29.48
2023-07-01T11:29:59.474Z,29.48
2023-07-01T11:30:59.503Z,29.53
2023-07-01T11:31:59.579Z,29.46
2023-07-01T11:32:59.538Z,29.48
2023-07-01T11:33:59.511Z,29.53
2023-07-01T11:34:59.596Z,29.50
2023-07-01T11:35:59.563Z,29.49
2023-07-01T11:36:59.575Z,29.52
2023-07-01T11:37:59.557Z,29.46
2023-07-01T11:38:59.548Z,29.50
2023-07-01T11:39:59.563Z,29.48
2023-07-01T11:40:59.563Z,29.50
2023-07-01T11:41:59.587Z,29.48
2023-07-01T11:42:59.576Z,29.48
2023-07-01T11:43:59.598Z,29.50
2023-07-01T11:44:59.590Z,29.49
2023-07-01T11:45:59.739Z,29.50
2023-07-01T11:46:59.620Z,29.53
2023-07-01T11:47:59.688Z,29.55
2023-07-01T11:48:59.624Z,29.53
2023-07-01T11:49:59.664Z,29.55
2023-07-01T11:50:59.700Z,29.52
2023-07-01T11:51:59.658Z,29.52
2023-07-01T11:52:59.701Z,29.56
2023-07-01T11:53:59.737Z,29.56
2023-07-01T11:54:59.710Z,29.60
2023-07-01T11:55:59.755Z,29.59
2023-07-01T11:56:59.729Z,29.57
2023-07-01T11:57:59.727Z,29.53
2023-07-01T11:59:01.545Z,29.59
2023-07-01T12:00:00.177Z,29.59
2023-07-01T12:00:59.819Z,29.55
2023-07-01T12:01:59.886Z,29.57
2023-07-01T12:02:59.885Z,29.60
2023-07-01T12:03:59.936Z,29.59
2023-07-01T12:05:00.026Z,29.66
2023-07-01T12:05:59.946Z,29.62
2023-07-01T12:07:00.545Z,29.64
2023-07-01T12:08:00.008Z,29.62
2023-07-01T12:09:08.151Z,29.67
2023-07-01T12:10:01.060Z,29.69
2023-07-01T12:11:00.038Z,29.67
2023-07-01T12:11:59.986Z,29.66
2023-07-01T12:13:00.384Z,29.64
2023-07-01T12:13:59.973Z,29.63
2023-07-01T12:15:00.028Z,29.66
2023-07-01T12:16:00.043Z,29.67
2023-07-01T12:16:59.977Z,29.60
2023-07-01T12:18:00.036Z,29.69
2023-07-01T12:19:01.234Z,29.67
2023-07-01T12:20:00.033Z,29.67
2023-07-01T12:20:59.987Z,29.67
2023-07-01T12:22:00.010Z,29.66
2023-07-01T12:23:00.041Z,29.70
2023-07-01T12:24:00.083Z,29.64
2023-07-01T12:25:02.922Z,29.70
2023-07-01T12:26:00.135Z,29.70
2023-07-01T12:27:00.112Z,29.66
2023-07-01T12:28:00.113Z,29.66
2023-07-01T12:29:00.098Z,29.69
2023-07-01T12:30:00.205Z,29.72
2023-07-01T12:31:00.083Z,29.74
2023-07-01T12:32:00.068Z,29.67
2023-07-01T12:33:00.155Z,29.64
2023-07-01T12:34:00.087Z,29.69
2023-07-01T12:35:00.015Z,29.73
2023-07-01T12:36:00.066Z,29.73
2023-07-01T12:37:00.036Z,29.66
2023-07-01T12:38:00.010Z,29.67
2023-07-01T12:39:00.047Z,29.73
2023-07-01T12:40:00.069Z,29.73
2023-07-01T12:41:00.031Z,29.69
2023-07-01T12:42:00.001Z,29.69
2023-07-01T12:43:00.022Z,29.74
2023-07-01T12:44:00.052Z,29.76
2023-07-01T12:44:59.967Z,29.77
2023-07-01T12:46:00.031Z,29.76
2023-07-01T12:46:59.972Z,29.80
2023-07-01T12:48:00.040Z,29.79
2023-07-01T12:48:59.950Z,29.72
2023-07-01T12:49:59.960Z,29.80
2023-07-01T12:50:59.939Z,29.72
2023-07-01T12:51:59.967Z,29.76
2023-07-01T12:53:00.100Z,29.77